sensor_id;sensor_type;location;lat;lon;timestamp;P1;durP1;ratioP1;P2;durP2;ratioP2
74632;SDS011;63139;52.018;8.552;2023-09-18T00:01:19;11.52;;;7.80;;
74632;SDS011;63139;52.018;8.552;2023-09-18T00:03:47;14.35;;;10.13;;
74632;SDS011;63139;52.018;8.552;2023-09-18T00:06:15;13.93;;;8.93;;
74632;SDS011;63139;52.018;8.552;2023-09-18T00:08:43;10.43;;;8.05;;
74632;SDS011;63139;52.018;8.552;2023-09-18T00:11:10;13.60;;;8.65;;
74632;SDS011;63139;52.018;8.552;2023-09-18T00:13:39;12.45;;;8.32;;
74632;SDS011;63139;52.018;8.552;2023-09-18T00:16:06;9.90;;;7.63;;
74632;SDS011;63139;52.018;8.552;2023-09-18T00:18:36;13.45;;;7.78;;
74632;SDS011;63139;52.018;8.552;2023-09-18T00:21:03;9.52;;;7.63;;
74632;SDS011;63139;52.018;8.552;2023-09-18T00:23:33;11.23;;;8.48;;
74632;SDS011;63139;52.018;8.552;2023-09-18T00:26:02;14.05;;;9.50;;
74632;SDS011;63139;52.018;8.552;2023-09-18T00:28:31;14.32;;;9.30;;
74632;SDS011;63139;52.018;8.552;2023-09-18T00:30:59;16.65;;;10.65;;
74632;SDS011;63139;52.018;8.552;2023-09-18T00:33:27;13.27;;;9.10;;
74632;SDS011;63139;52.018;8.552;2023-09-18T00:35:56;14.45;;;10.38;;
74632;SDS011;63139;52.018;8.552;2023-09-18T00:38:24;13.15;;;8.75;;
74632;SDS011;63139;52.018;8.552;2023-09-18T00:40:52;13.55;;;9.77;;
74632;SDS011;63139;52.018;8.552;2023-09-18T00:43:20;16.58;;;11.35;;
74632;SDS011;63139;52.018;8.552;2023-09-18T00:45:48;13.48;;;10.00;;
74632;SDS011;63139;52.018;8.552;2023-09-18T00:48:17;14.95;;;10.93;;
74632;SDS011;63139;52.018;8.552;2023-09-18T00:50:45;18.65;;;12.88;;
74632;SDS011;63139;52.018;8.552;2023-09-18T00:53:17;16.23;;;11.20;;
74632;SDS011;63139;52.018;8.552;2023-09-18T00:55:47;12.20;;;8.85;;
74632;SDS011;63139;52.018;8.552;2023-09-18T00:58:18;16.55;;;10.13;;
74632;SDS011;63139;52.018;8.552;2023-09-18T01:00:45;17.00;;;9.98;;
74632;SDS011;63139;52.018;8.552;2023-09-18T01:03:17;14.80;;;9.00;;
74632;SDS011;63139;52.018;8.552;2023-09-18T01:05:47;10.45;;;8.77;;
74632;SDS011;63139;52.018;8.552;2023-09-18T01:08:18;12.20;;;9.32;;
74632;SDS011;63139;52.018;8.552;2023-09-18T01:10:47;19.52;;;11.75;;
74632;SDS011;63139;52.018;8.552;2023-09-18T01:13:21;15.43;;;11.13;;
74632;SDS011;63139;52.018;8.552;2023-09-18T01:15:59;14.10;;;9.73;;
74632;SDS011;63139;52.018;8.552;2023-09-18T01:18:33;21.25;;;13.32;;
74632;SDS011;63139;52.018;8.552;2023-09-18T01:21:00;17.85;;;12.10;;
74632;SDS011;63139;52.018;8.552;2023-09-18T01:23:30;15.73;;;10.43;;
74632;SDS011;63139;52.018;8.552;2023-09-18T01:25:57;15.13;;;9.40;;
74632;SDS011;63139;52.018;8.552;2023-09-18T01:28:25;13.73;;;9.27;;
74632;SDS011;63139;52.018;8.552;2023-09-18T01:30:53;17.27;;;11.88;;
74632;SDS011;63139;52.018;8.552;2023-09-18T01:33:21;18.63;;;11.57;;
74632;SDS011;63139;52.018;8.552;2023-09-18T01:35:54;19.70;;;12.38;;
74632;SDS011;63139;52.018;8.552;2023-09-18T01:38:23;18.65;;;11.57;;
74632;SDS011;63139;52.018;8.552;2023-09-18T01:40:54;15.02;;;10.60;;
74632;SDS011;63139;52.018;8.552;2023-09-18T01:43:24;19.65;;;13.15;;
74632;SDS011;63139;52.018;8.552;2023-09-18T01:45:52;24.75;;;13.23;;
74632;SDS011;63139;52.018;8.552;2023-09-18T01:48:23;16.70;;;10.75;;
74632;SDS011;63139;52.018;8.552;2023-09-18T01:50:51;16.08;;;10.90;;
74632;SDS011;63139;52.018;8.552;2023-09-18T01:53:19;17.33;;;11.70;;
74632;SDS011;63139;52.018;8.552;2023-09-18T01:55:47;17.52;;;12.15;;
74632;SDS011;63139;52.018;8.552;2023-09-18T01:58:16;15.60;;;10.15;;
74632;SDS011;63139;52.018;8.552;2023-09-18T02:00:45;17.65;;;11.48;;
74632;SDS011;63139;52.018;8.552;2023-09-18T02:03:13;18.45;;;10.32;;
74632;SDS011;63139;52.018;8.552;2023-09-18T02:06:04;13.98;;;10.15;;
74632;SDS011;63139;52.018;8.552;2023-09-18T02:08:32;15.07;;;10.63;;
74632;SDS011;63139;52.018;8.552;2023-09-18T02:11:00;16.90;;;10.63;;
74632;SDS011;63139;52.018;8.552;2023-09-18T02:13:30;17.08;;;11.48;;
74632;SDS011;63139;52.018;8.552;2023-09-18T02:15:58;14.25;;;10.25;;
74632;SDS011;63139;52.018;8.552;2023-09-18T02:18:26;20.33;;;12.93;;
74632;SDS011;63139;52.018;8.552;2023-09-18T02:20:54;15.10;;;10.75;;
74632;SDS011;63139;52.018;8.552;2023-09-18T02:23:22;15.38;;;10.77;;
74632;SDS011;63139;52.018;8.552;2023-09-18T02:25:55;22.10;;;12.13;;
74632;SDS011;63139;52.018;8.552;2023-09-18T02:28:23;20.02;;;12.95;;
74632;SDS011;63139;52.018;8.552;2023-09-18T02:30:52;15.93;;;11.38;;
74632;SDS011;63139;52.018;8.552;2023-09-18T02:33:20;22.02;;;14.20;;
74632;SDS011;63139;52.018;8.552;2023-09-18T02:35:48;21.42;;;14.48;;
74632;SDS011;63139;52.018;8.552;2023-09-18T02:38:17;21.17;;;13.52;;
74632;SDS011;63139;52.018;8.552;2023-09-18T02:40:45;22.88;;;13.93;;
74632;SDS011;63139;52.018;8.552;2023-09-18T02:43:13;17.55;;;12.02;;
74632;SDS011;63139;52.018;8.552;2023-09-18T02:45:40;23.85;;;14.68;;
74632;SDS011;63139;52.018;8.552;2023-09-18T02:48:10;25.65;;;16.35;;
74632;SDS011;63139;52.018;8.552;2023-09-18T02:50:38;22.02;;;15.95;;
74632;SDS011;63139;52.018;8.552;2023-09-18T02:53:07;21.92;;;14.88;;
74632;SDS011;63139;52.018;8.552;2023-09-18T02:55:39;26.63;;;16.45;;
74632;SDS011;63139;52.018;8.552;2023-09-18T02:58:07;23.52;;;15.75;;
74632;SDS011;63139;52.018;8.552;2023-09-18T03:00:40;24.58;;;14.55;;
74632;SDS011;63139;52.018;8.552;2023-09-18T03:03:12;13.23;;;10.45;;
74632;SDS011;63139;52.018;8.552;2023-09-18T03:05:40;14.68;;;9.60;;
74632;SDS011;63139;52.018;8.552;2023-09-18T03:08:09;10.68;;;8.50;;
74632;SDS011;63139;52.018;8.552;2023-09-18T03:10:39;10.73;;;7.10;;
74632;SDS011;63139;52.018;8.552;2023-09-18T03:13:09;9.48;;;6.90;;
74632;SDS011;63139;52.018;8.552;2023-09-18T03:15:38;7.00;;;5.93;;
74632;SDS011;63139;52.018;8.552;2023-09-18T03:18:06;10.05;;;6.13;;
74632;SDS011;63139;52.018;8.552;2023-09-18T03:20:36;10.02;;;6.13;;
74632;SDS011;63139;52.018;8.552;2023-09-18T03:23:04;5.78;;;5.20;;
74632;SDS011;63139;52.018;8.552;2023-09-18T03:25:32;8.23;;;5.45;;
74632;SDS011;63139;52.018;8.552;2023-09-18T03:28:18;5.07;;;4.43;;
74632;SDS011;63139;52.018;8.552;2023-09-18T03:30:47;11.32;;;5.28;;
74632;SDS011;63139;52.018;8.552;2023-09-18T03:33:18;5.18;;;4.65;;
74632;SDS011;63139;52.018;8.552;2023-09-18T03:35:48;6.10;;;5.00;;
74632;SDS011;63139;52.018;8.552;2023-09-18T03:38:21;6.78;;;5.00;;
74632;SDS011;63139;52.018;8.552;2023-09-18T03:40:51;7.22;;;4.65;;
74632;SDS011;63139;52.018;8.552;2023-09-18T03:43:20;7.05;;;4.60;;
74632;SDS011;63139;52.018;8.552;2023-09-18T03:45:48;5.10;;;4.53;;
74632;SDS011;63139;52.018;8.552;2023-09-18T03:48:17;5.35;;;4.22;;
74632;SDS011;63139;52.018;8.552;2023-09-18T03:50:48;6.45;;;4.50;;
74632;SDS011;63139;52.018;8.552;2023-09-18T03:53:16;6.15;;;4.88;;
74632;SDS011;63139;52.018;8.552;2023-09-18T03:55:44;5.80;;;4.57;;
74632;SDS011;63139;52.018;8.552;2023-09-18T03:58:12;4.85;;;4.38;;
74632;SDS011;63139;52.018;8.552;2023-09-18T04:00:40;6.03;;;4.70;;
74632;SDS011;63139;52.018;8.552;2023-09-18T04:03:09;10.10;;;6.15;;
74632;SDS011;63139;52.018;8.552;2023-09-18T04:05:37;8.85;;;5.88;;
74632;SDS011;63139;52.018;8.552;2023-09-18T04:08:06;6.05;;;5.45;;
74632;SDS011;63139;52.018;8.552;2023-09-18T04:10:34;5.15;;;4.60;;
74632;SDS011;63139;52.018;8.552;2023-09-18T04:13:03;6.03;;;4.57;;
74632;SDS011;63139;52.018;8.552;2023-09-18T04:15:30;5.18;;;4.38;;
74632;SDS011;63139;52.018;8.552;2023-09-18T04:17:58;6.80;;;4.20;;
74632;SDS011;63139;52.018;8.552;2023-09-18T04:20:26;5.47;;;4.13;;
74632;SDS011;63139;52.018;8.552;2023-09-18T04:25:50;6.22;;;4.22;;
74632;SDS011;63139;52.018;8.552;2023-09-18T04:28:19;5.22;;;4.28;;
74632;SDS011;63139;52.018;8.552;2023-09-18T04:30:49;5.57;;;4.30;;
74632;SDS011;63139;52.018;8.552;2023-09-18T04:33:18;6.25;;;4.25;;
74632;SDS011;63139;52.018;8.552;2023-09-18T04:35:48;5.75;;;4.38;;
74632;SDS011;63139;52.018;8.552;2023-09-18T04:38:16;5.72;;;4.03;;
74632;SDS011;63139;52.018;8.552;2023-09-18T04:40:47;6.40;;;3.88;;
74632;SDS011;63139;52.018;8.552;2023-09-18T04:43:15;4.65;;;4.15;;
74632;SDS011;63139;52.018;8.552;2023-09-18T04:45:44;6.18;;;4.13;;
74632;SDS011;63139;52.018;8.552;2023-09-18T04:48:14;4.20;;;3.83;;
74632;SDS011;63139;52.018;8.552;2023-09-18T04:50:42;6.43;;;4.20;;
74632;SDS011;63139;52.018;8.552;2023-09-18T04:53:10;6.93;;;4.45;;
74632;SDS011;63139;52.018;8.552;2023-09-18T04:55:37;7.10;;;4.63;;
74632;SDS011;63139;52.018;8.552;2023-09-18T04:58:07;5.18;;;4.13;;
74632;SDS011;63139;52.018;8.552;2023-09-18T05:00:35;4.63;;;4.05;;
74632;SDS011;63139;52.018;8.552;2023-09-18T05:03:03;5.68;;;4.00;;
74632;SDS011;63139;52.018;8.552;2023-09-18T05:05:33;5.10;;;4.60;;
74632;SDS011;63139;52.018;8.552;2023-09-18T05:08:01;6.82;;;4.45;;
74632;SDS011;63139;52.018;8.552;2023-09-18T05:10:29;8.23;;;4.10;;
74632;SDS011;63139;52.018;8.552;2023-09-18T05:12:57;5.28;;;3.85;;
74632;SDS011;63139;52.018;8.552;2023-09-18T05:15:27;7.78;;;4.30;;
74632;SDS011;63139;52.018;8.552;2023-09-18T05:17:56;5.97;;;4.10;;
74632;SDS011;63139;52.018;8.552;2023-09-18T05:20:26;6.68;;;4.90;;
74632;SDS011;63139;52.018;8.552;2023-09-18T05:22:56;7.88;;;4.40;;
74632;SDS011;63139;52.018;8.552;2023-09-18T05:25:25;5.43;;;4.88;;
74632;SDS011;63139;52.018;8.552;2023-09-18T05:27:54;6.57;;;4.03;;
74632;SDS011;63139;52.018;8.552;2023-09-18T05:30:24;5.68;;;4.55;;
74632;SDS011;63139;52.018;8.552;2023-09-18T05:32:55;4.88;;;4.38;;
74632;SDS011;63139;52.018;8.552;2023-09-18T05:35:23;5.13;;;4.40;;
74632;SDS011;63139;52.018;8.552;2023-09-18T05:37:52;5.22;;;3.90;;
74632;SDS011;63139;52.018;8.552;2023-09-18T05:40:20;5.28;;;4.30;;
74632;SDS011;63139;52.018;8.552;2023-09-18T05:42:48;7.30;;;4.60;;
74632;SDS011;63139;52.018;8.552;2023-09-18T05:45:16;5.72;;;4.68;;
74632;SDS011;63139;52.018;8.552;2023-09-18T05:47:44;6.25;;;4.10;;
74632;SDS011;63139;52.018;8.552;2023-09-18T05:50:14;6.15;;;4.25;;
74632;SDS011;63139;52.018;8.552;2023-09-18T05:52:43;5.53;;;4.15;;
74632;SDS011;63139;52.018;8.552;2023-09-18T05:55:12;6.30;;;4.20;;
74632;SDS011;63139;52.018;8.552;2023-09-18T05:57:41;6.22;;;4.40;;
74632;SDS011;63139;52.018;8.552;2023-09-18T06:00:09;7.53;;;4.22;;
74632;SDS011;63139;52.018;8.552;2023-09-18T06:02:39;5.30;;;3.83;;
74632;SDS011;63139;52.018;8.552;2023-09-18T06:05:08;5.57;;;3.83;;
74632;SDS011;63139;52.018;8.552;2023-09-18T06:07:39;5.68;;;4.18;;
74632;SDS011;63139;52.018;8.552;2023-09-18T06:10:07;6.50;;;4.07;;
74632;SDS011;63139;52.018;8.552;2023-09-18T06:12:37;6.20;;;3.53;;
74632;SDS011;63139;52.018;8.552;2023-09-18T06:15:06;7.97;;;3.88;;
74632;SDS011;63139;52.018;8.552;2023-09-18T06:17:36;6.13;;;4.00;;
74632;SDS011;63139;52.018;8.552;2023-09-18T06:20:06;5.40;;;3.60;;
74632;SDS011;63139;52.018;8.552;2023-09-18T06:22:36;5.18;;;3.90;;
74632;SDS011;63139;52.018;8.552;2023-09-18T06:25:06;3.90;;;3.42;;
74632;SDS011;63139;52.018;8.552;2023-09-18T06:27:36;4.03;;;3.63;;
74632;SDS011;63139;52.018;8.552;2023-09-18T06:30:05;5.20;;;4.03;;
74632;SDS011;63139;52.018;8.552;2023-09-18T06:32:34;5.53;;;3.83;;
74632;SDS011;63139;52.018;8.552;2023-09-18T06:35:03;4.25;;;3.70;;
74632;SDS011;63139;52.018;8.552;2023-09-18T06:37:32;4.93;;;3.88;;
74632;SDS011;63139;52.018;8.552;2023-09-18T06:40:00;5.20;;;3.75;;
74632;SDS011;63139;52.018;8.552;2023-09-18T06:42:32;4.13;;;3.60;;
74632;SDS011;63139;52.018;8.552;2023-09-18T06:45:00;4.18;;;3.78;;
74632;SDS011;63139;52.018;8.552;2023-09-18T06:47:33;4.43;;;3.95;;
74632;SDS011;63139;52.018;8.552;2023-09-18T06:50:01;7.22;;;4.53;;
74632;SDS011;63139;52.018;8.552;2023-09-18T06:52:31;6.93;;;4.30;;
74632;SDS011;63139;52.018;8.552;2023-09-18T06:54:59;6.05;;;3.63;;
74632;SDS011;63139;52.018;8.552;2023-09-18T06:57:27;10.25;;;4.45;;
74632;SDS011;63139;52.018;8.552;2023-09-18T06:59:56;4.85;;;3.88;;
74632;SDS011;63139;52.018;8.552;2023-09-18T07:02:24;5.75;;;4.05;;
74632;SDS011;63139;52.018;8.552;2023-09-18T07:04:52;6.07;;;3.80;;
74632;SDS011;63139;52.018;8.552;2023-09-18T07:07:20;4.88;;;4.07;;
74632;SDS011;63139;52.018;8.552;2023-09-18T07:09:52;7.38;;;4.30;;
74632;SDS011;63139;52.018;8.552;2023-09-18T07:12:30;4.90;;;4.07;;
74632;SDS011;63139;52.018;8.552;2023-09-18T07:14:59;4.93;;;3.55;;
74632;SDS011;63139;52.018;8.552;2023-09-18T07:17:30;5.55;;;3.38;;
74632;SDS011;63139;52.018;8.552;2023-09-18T07:19:58;7.13;;;3.97;;
74632;SDS011;63139;52.018;8.552;2023-09-18T07:22:26;8.45;;;4.03;;
74632;SDS011;63139;52.018;8.552;2023-09-18T07:24:56;7.68;;;3.85;;
74632;SDS011;63139;52.018;8.552;2023-09-18T07:27:24;9.80;;;4.13;;
74632;SDS011;63139;52.018;8.552;2023-09-18T07:29:55;5.93;;;3.70;;
74632;SDS011;63139;52.018;8.552;2023-09-18T07:32:25;3.97;;;3.20;;
74632;SDS011;63139;52.018;8.552;2023-09-18T07:35:04;3.90;;;3.20;;
74632;SDS011;63139;52.018;8.552;2023-09-18T07:37:33;7.20;;;3.38;;
74632;SDS011;63139;52.018;8.552;2023-09-18T07:40:02;9.32;;;3.35;;
74632;SDS011;63139;52.018;8.552;2023-09-18T07:42:30;7.40;;;3.20;;
74632;SDS011;63139;52.018;8.552;2023-09-18T07:44:58;5.63;;;2.90;;
74632;SDS011;63139;52.018;8.552;2023-09-18T07:47:27;6.43;;;2.97;;
74632;SDS011;63139;52.018;8.552;2023-09-18T07:49:57;7.18;;;3.10;;
74632;SDS011;63139;52.018;8.552;2023-09-18T07:52:25;5.57;;;2.65;;
74632;SDS011;63139;52.018;8.552;2023-09-18T07:54:53;10.02;;;3.08;;
74632;SDS011;63139;52.018;8.552;2023-09-18T07:57:21;4.75;;;2.55;;
74632;SDS011;63139;52.018;8.552;2023-09-18T07:59:49;6.18;;;2.72;;
74632;SDS011;63139;52.018;8.552;2023-09-18T08:02:17;5.30;;;2.80;;
74632;SDS011;63139;52.018;8.552;2023-09-18T08:04:47;5.97;;;2.33;;
74632;SDS011;63139;52.018;8.552;2023-09-18T08:07:16;3.30;;;2.30;;
74632;SDS011;63139;52.018;8.552;2023-09-18T08:09:44;5.45;;;1.83;;
74632;SDS011;63139;52.018;8.552;2023-09-18T08:12:13;6.47;;;2.10;;
74632;SDS011;63139;52.018;8.552;2023-09-18T08:14:41;5.82;;;2.00;;
74632;SDS011;63139;52.018;8.552;2023-09-18T08:17:09;3.30;;;1.95;;
74632;SDS011;63139;52.018;8.552;2023-09-18T08:19:37;6.15;;;2.22;;
74632;SDS011;63139;52.018;8.552;2023-09-18T08:22:07;6.10;;;2.10;;
74632;SDS011;63139;52.018;8.552;2023-09-18T08:24:36;4.90;;;2.20;;
74632;SDS011;63139;52.018;8.552;2023-09-18T08:27:04;6.63;;;1.98;;
74632;SDS011;63139;52.018;8.552;2023-09-18T08:29:32;4.47;;;2.00;;
74632;SDS011;63139;52.018;8.552;2023-09-18T08:32:00;4.38;;;1.92;;
74632;SDS011;63139;52.018;8.552;2023-09-18T08:34:28;7.32;;;1.88;;
74632;SDS011;63139;52.018;8.552;2023-09-18T08:36:56;2.97;;;1.70;;
74632;SDS011;63139;52.018;8.552;2023-09-18T08:39:25;9.48;;;2.13;;
74632;SDS011;63139;52.018;8.552;2023-09-18T08:41:54;4.72;;;1.90;;
74632;SDS011;63139;52.018;8.552;2023-09-18T08:44:26;5.70;;;2.00;;
74632;SDS011;63139;52.018;8.552;2023-09-18T08:46:55;5.10;;;2.03;;
74632;SDS011;63139;52.018;8.552;2023-09-18T08:49:23;6.35;;;1.83;;
74632;SDS011;63139;52.018;8.552;2023-09-18T08:51:53;4.70;;;1.95;;
74632;SDS011;63139;52.018;8.552;2023-09-18T08:54:22;5.53;;;1.70;;
74632;SDS011;63139;52.018;8.552;2023-09-18T08:56:52;5.68;;;1.98;;
74632;SDS011;63139;52.018;8.552;2023-09-18T08:59:21;6.47;;;2.20;;
74632;SDS011;63139;52.018;8.552;2023-09-18T09:01:49;4.03;;;1.88;;
74632;SDS011;63139;52.018;8.552;2023-09-18T09:04:18;4.18;;;1.75;;
74632;SDS011;63139;52.018;8.552;2023-09-18T09:06:46;2.40;;;1.80;;
74632;SDS011;63139;52.018;8.552;2023-09-18T09:09:15;4.32;;;1.90;;
74632;SDS011;63139;52.018;8.552;2023-09-18T09:11:49;3.50;;;1.70;;
74632;SDS011;63139;52.018;8.552;2023-09-18T09:14:18;5.15;;;2.03;;
74632;SDS011;63139;52.018;8.552;2023-09-18T09:16:49;5.22;;;2.20;;
74632;SDS011;63139;52.018;8.552;2023-09-18T09:19:17;5.18;;;1.80;;
74632;SDS011;63139;52.018;8.552;2023-09-18T09:21:47;5.93;;;2.03;;
74632;SDS011;63139;52.018;8.552;2023-09-18T09:24:17;3.75;;;1.80;;
74632;SDS011;63139;52.018;8.552;2023-09-18T09:27:03;2.63;;;1.70;;
74632;SDS011;63139;52.018;8.552;2023-09-18T09:29:32;4.72;;;2.00;;
74632;SDS011;63139;52.018;8.552;2023-09-18T09:32:13;4.35;;;1.52;;
74632;SDS011;63139;52.018;8.552;2023-09-18T09:34:42;5.07;;;1.85;;
74632;SDS011;63139;52.018;8.552;2023-09-18T09:37:11;3.65;;;1.58;;
74632;SDS011;63139;52.018;8.552;2023-09-18T09:39:46;3.90;;;2.10;;
74632;SDS011;63139;52.018;8.552;2023-09-18T09:42:16;4.68;;;2.08;;
74632;SDS011;63139;52.018;8.552;2023-09-18T09:45:02;4.85;;;2.03;;
74632;SDS011;63139;52.018;8.552;2023-09-18T09:47:32;6.30;;;1.90;;
74632;SDS011;63139;52.018;8.552;2023-09-18T09:50:05;5.30;;;1.85;;
74632;SDS011;63139;52.018;8.552;2023-09-18T09:52:34;4.90;;;1.80;;
74632;SDS011;63139;52.018;8.552;2023-09-18T09:55:01;7.07;;;1.90;;
74632;SDS011;63139;52.018;8.552;2023-09-18T09:57:41;3.65;;;1.60;;
74632;SDS011;63139;52.018;8.552;2023-09-18T10:00:16;6.38;;;2.00;;
74632;SDS011;63139;52.018;8.552;2023-09-18T10:02:54;4.85;;;1.60;;
74632;SDS011;63139;52.018;8.552;2023-09-18T10:05:26;2.95;;;1.73;;
74632;SDS011;63139;52.018;8.552;2023-09-18T10:07:57;4.15;;;1.88;;
74632;SDS011;63139;52.018;8.552;2023-09-18T10:10:29;8.77;;;2.00;;
74632;SDS011;63139;52.018;8.552;2023-09-18T10:13:00;2.53;;;1.60;;
74632;SDS011;63139;52.018;8.552;2023-09-18T10:15:35;5.20;;;2.08;;
74632;SDS011;63139;52.018;8.552;2023-09-18T10:18:17;3.85;;;1.70;;
74632;SDS011;63139;52.018;8.552;2023-09-18T10:20:51;4.07;;;1.85;;
74632;SDS011;63139;52.018;8.552;2023-09-18T10:23:27;3.92;;;1.88;;
74632;SDS011;63139;52.018;8.552;2023-09-18T10:26:06;4.88;;;2.00;;
74632;SDS011;63139;52.018;8.552;2023-09-18T10:28:39;4.38;;;1.95;;
74632;SDS011;63139;52.018;8.552;2023-09-18T10:31:08;3.88;;;1.70;;
74632;SDS011;63139;52.018;8.552;2023-09-18T10:33:37;2.45;;;1.65;;
74632;SDS011;63139;52.018;8.552;2023-09-18T10:36:06;4.38;;;1.70;;
74632;SDS011;63139;52.018;8.552;2023-09-18T10:38:36;4.57;;;1.80;;
74632;SDS011;63139;52.018;8.552;2023-09-18T10:41:05;4.47;;;1.67;;
74632;SDS011;63139;52.018;8.552;2023-09-18T10:43:36;5.38;;;2.00;;
74632;SDS011;63139;52.018;8.552;2023-09-18T10:46:05;11.70;;;2.22;;
74632;SDS011;63139;52.018;8.552;2023-09-18T10:48:34;4.05;;;2.00;;
74632;SDS011;63139;52.018;8.552;2023-09-18T10:51:03;4.47;;;1.73;;
74632;SDS011;63139;52.018;8.552;2023-09-18T10:53:32;4.47;;;1.70;;
74632;SDS011;63139;52.018;8.552;2023-09-18T10:56:00;6.05;;;2.33;;
74632;SDS011;63139;52.018;8.552;2023-09-18T10:58:30;2.92;;;1.70;;
74632;SDS011;63139;52.018;8.552;2023-09-18T11:01:01;2.90;;;1.80;;
74632;SDS011;63139;52.018;8.552;2023-09-18T11:03:32;4.13;;;1.88;;
74632;SDS011;63139;52.018;8.552;2023-09-18T11:06:02;3.53;;;1.90;;
74632;SDS011;63139;52.018;8.552;2023-09-18T11:08:32;3.17;;;1.70;;
74632;SDS011;63139;52.018;8.552;2023-09-18T11:11:02;3.80;;;1.92;;
74632;SDS011;63139;52.018;8.552;2023-09-18T11:13:37;3.00;;;1.80;;
74632;SDS011;63139;52.018;8.552;2023-09-18T11:16:17;4.70;;;1.80;;
74632;SDS011;63139;52.018;8.552;2023-09-18T11:19:07;6.30;;;1.65;;
74632;SDS011;63139;52.018;8.552;2023-09-18T11:21:37;2.10;;;1.45;;
74632;SDS011;63139;52.018;8.552;2023-09-18T11:24:06;2.92;;;1.80;;
74632;SDS011;63139;52.018;8.552;2023-09-18T11:26:39;3.08;;;1.60;;
74632;SDS011;63139;52.018;8.552;2023-09-18T11:29:09;5.00;;;1.95;;
74632;SDS011;63139;52.018;8.552;2023-09-18T11:31:41;4.28;;;1.70;;
74632;SDS011;63139;52.018;8.552;2023-09-18T11:34:12;4.68;;;1.92;;
74632;SDS011;63139;52.018;8.552;2023-09-18T11:36:41;3.10;;;1.90;;
74632;SDS011;63139;52.018;8.552;2023-09-18T11:39:09;4.35;;;2.08;;
74632;SDS011;63139;52.018;8.552;2023-09-18T11:41:38;3.95;;;1.90;;
74632;SDS011;63139;52.018;8.552;2023-09-18T11:47:03;2.38;;;1.70;;
74632;SDS011;63139;52.018;8.552;2023-09-18T11:49:36;3.83;;;1.65;;
74632;SDS011;63139;52.018;8.552;2023-09-18T11:52:05;3.08;;;1.60;;
74632;SDS011;63139;52.018;8.552;2023-09-18T11:54:34;4.78;;;1.70;;
74632;SDS011;63139;52.018;8.552;2023-09-18T11:57:05;3.92;;;1.52;;
74632;SDS011;63139;52.018;8.552;2023-09-18T11:59:34;2.63;;;1.60;;
74632;SDS011;63139;52.018;8.552;2023-09-18T12:02:10;3.28;;;1.75;;
74632;SDS011;63139;52.018;8.552;2023-09-18T12:04:48;4.90;;;1.77;;
74632;SDS011;63139;52.018;8.552;2023-09-18T12:07:16;4.03;;;1.67;;
74632;SDS011;63139;52.018;8.552;2023-09-18T12:09:45;5.13;;;1.70;;
74632;SDS011;63139;52.018;8.552;2023-09-18T12:12:13;3.88;;;1.33;;
74632;SDS011;63139;52.018;8.552;2023-09-18T12:14:41;3.38;;;1.50;;
74632;SDS011;63139;52.018;8.552;2023-09-18T12:17:14;3.05;;;1.58;;
74632;SDS011;63139;52.018;8.552;2023-09-18T12:19:51;2.55;;;1.50;;
74632;SDS011;63139;52.018;8.552;2023-09-18T12:22:23;1.40;;;1.30;;
74632;SDS011;63139;52.018;8.552;2023-09-18T12:24:52;5.75;;;1.70;;
74632;SDS011;63139;52.018;8.552;2023-09-18T12:27:21;3.70;;;2.00;;
74632;SDS011;63139;52.018;8.552;2023-09-18T12:29:53;3.45;;;2.00;;
74632;SDS011;63139;52.018;8.552;2023-09-18T12:32:22;5.13;;;1.80;;
74632;SDS011;63139;52.018;8.552;2023-09-18T12:34:52;3.75;;;2.53;;
74632;SDS011;63139;52.018;8.552;2023-09-18T12:37:21;3.65;;;1.92;;
74632;SDS011;63139;52.018;8.552;2023-09-18T12:39:50;3.85;;;2.20;;
74632;SDS011;63139;52.018;8.552;2023-09-18T12:42:18;5.40;;;1.98;;
74632;SDS011;63139;52.018;8.552;2023-09-18T12:44:47;5.10;;;1.90;;
74632;SDS011;63139;52.018;8.552;2023-09-18T12:47:15;3.53;;;2.13;;
74632;SDS011;63139;52.018;8.552;2023-09-18T12:49:44;3.97;;;2.35;;
74632;SDS011;63139;52.018;8.552;2023-09-18T12:52:21;3.25;;;2.17;;
74632;SDS011;63139;52.018;8.552;2023-09-18T12:54:50;6.15;;;2.10;;
74632;SDS011;63139;52.018;8.552;2023-09-18T12:57:20;2.97;;;1.75;;
74632;SDS011;63139;52.018;8.552;2023-09-18T12:59:48;3.72;;;1.80;;
74632;SDS011;63139;52.018;8.552;2023-09-18T13:02:17;2.55;;;1.77;;
74632;SDS011;63139;52.018;8.552;2023-09-18T13:04:50;3.63;;;1.70;;
74632;SDS011;63139;52.018;8.552;2023-09-18T13:07:21;4.03;;;1.60;;
74632;SDS011;63139;52.018;8.552;2023-09-18T13:09:58;2.50;;;1.40;;
74632;SDS011;63139;52.018;8.552;2023-09-18T13:12:38;1.95;;;1.40;;
74632;SDS011;63139;52.018;8.552;2023-09-18T13:15:07;3.80;;;1.67;;
74632;SDS011;63139;52.018;8.552;2023-09-18T13:17:38;4.13;;;1.63;;
74632;SDS011;63139;52.018;8.552;2023-09-18T13:20:14;7.78;;;1.80;;
74632;SDS011;63139;52.018;8.552;2023-09-18T13:22:47;1.95;;;1.40;;
74632;SDS011;63139;52.018;8.552;2023-09-18T13:25:20;3.95;;;1.73;;
74632;SDS011;63139;52.018;8.552;2023-09-18T13:27:48;4.65;;;1.70;;
74632;SDS011;63139;52.018;8.552;2023-09-18T13:30:17;4.13;;;1.40;;
74632;SDS011;63139;52.018;8.552;2023-09-18T13:32:47;3.22;;;1.73;;
74632;SDS011;63139;52.018;8.552;2023-09-18T13:35:17;3.28;;;1.60;;
74632;SDS011;63139;52.018;8.552;2023-09-18T13:37:47;3.45;;;1.65;;
74632;SDS011;63139;52.018;8.552;2023-09-18T13:40:14;2.22;;;1.67;;
74632;SDS011;63139;52.018;8.552;2023-09-18T13:42:42;4.75;;;2.03;;
74632;SDS011;63139;52.018;8.552;2023-09-18T13:45:10;2.40;;;1.40;;
74632;SDS011;63139;52.018;8.552;2023-09-18T13:47:38;3.55;;;1.65;;
74632;SDS011;63139;52.018;8.552;2023-09-18T13:50:06;4.03;;;1.77;;
74632;SDS011;63139;52.018;8.552;2023-09-18T13:52:35;4.25;;;2.22;;
74632;SDS011;63139;52.018;8.552;2023-09-18T13:55:05;3.85;;;2.25;;
74632;SDS011;63139;52.018;8.552;2023-09-18T13:57:33;4.65;;;2.10;;
74632;SDS011;63139;52.018;8.552;2023-09-18T14:00:02;3.38;;;1.80;;
74632;SDS011;63139;52.018;8.552;2023-09-18T14:02:42;2.80;;;1.65;;
74632;SDS011;63139;52.018;8.552;2023-09-18T14:05:10;2.15;;;1.33;;
74632;SDS011;63139;52.018;8.552;2023-09-18T14:07:43;2.50;;;1.60;;
74632;SDS011;63139;52.018;8.552;2023-09-18T14:10:13;3.25;;;1.50;;
74632;SDS011;63139;52.018;8.552;2023-09-18T14:12:41;2.00;;;1.58;;
74632;SDS011;63139;52.018;8.552;2023-09-18T14:15:09;1.98;;;1.75;;
74632;SDS011;63139;52.018;8.552;2023-09-18T14:17:37;4.22;;;1.70;;
74632;SDS011;63139;52.018;8.552;2023-09-18T14:20:06;3.00;;;1.58;;
74632;SDS011;63139;52.018;8.552;2023-09-18T14:22:36;2.22;;;1.70;;
74632;SDS011;63139;52.018;8.552;2023-09-18T14:25:04;3.58;;;1.98;;
74632;SDS011;63139;52.018;8.552;2023-09-18T14:27:35;4.25;;;2.22;;
74632;SDS011;63139;52.018;8.552;2023-09-18T14:30:03;3.20;;;1.77;;
74632;SDS011;63139;52.018;8.552;2023-09-18T14:32:34;3.47;;;1.50;;
74632;SDS011;63139;52.018;8.552;2023-09-18T14:35:03;3.67;;;1.30;;
74632;SDS011;63139;52.018;8.552;2023-09-18T14:37:35;2.40;;;1.30;;
74632;SDS011;63139;52.018;8.552;2023-09-18T14:40:03;2.03;;;1.30;;
74632;SDS011;63139;52.018;8.552;2023-09-18T14:42:31;3.13;;;1.63;;
74632;SDS011;63139;52.018;8.552;2023-09-18T14:45:01;3.20;;;1.35;;
74632;SDS011;63139;52.018;8.552;2023-09-18T14:47:29;2.53;;;1.65;;
74632;SDS011;63139;52.018;8.552;2023-09-18T14:49:57;4.85;;;1.70;;
74632;SDS011;63139;52.018;8.552;2023-09-18T14:52:27;2.40;;;1.70;;
74632;SDS011;63139;52.018;8.552;2023-09-18T14:54:56;2.67;;;1.50;;
74632;SDS011;63139;52.018;8.552;2023-09-18T14:57:24;6.82;;;2.00;;
74632;SDS011;63139;52.018;8.552;2023-09-18T14:59:53;3.25;;;1.55;;
74632;SDS011;63139;52.018;8.552;2023-09-18T15:02:22;4.15;;;1.90;;
74632;SDS011;63139;52.018;8.552;2023-09-18T15:04:55;1.60;;;1.30;;